createdAt,value
2023-03-22T00:02:37.214Z,18.10
2023-03-22T00:05:06.433Z,18.60
2023-03-22T00:07:34.695Z,19.30
2023-03-22T00:10:10.849Z,20.00
2023-03-22T00:12:45.905Z,16.30
2023-03-22T00:15:15.501Z,15.20
2023-03-22T00:17:45.009Z,14.20
2023-03-22T00:20:20.587Z,14.80
2023-03-22T00:22:50.408Z,12.30
2023-03-22T00:25:23.972Z,15.00
2023-03-22T00:27:54.939Z,13.50
2023-03-22T00:30:26.134Z,15.70
2023-03-22T00:32:58.105Z,14.80
2023-03-22T00:35:33.558Z,14.40
2023-03-22T00:38:06.229Z,12.80
2023-03-22T00:40:37.234Z,15.10
2023-03-22T00:43:05.773Z,12.10
2023-03-22T00:45:36.452Z,13.20
2023-03-22T00:48:12.054Z,14.40
2023-03-22T00:50:43.248Z,15.40
2023-03-22T00:53:11.634Z,14.40
2023-03-22T00:55:41.434Z,14.50
2023-03-22T00:58:12.572Z,12.40
2023-03-22T01:00:41.593Z,12.60
2023-03-22T01:03:16.689Z,11.80
2023-03-22T01:05:49.516Z,15.00
2023-03-22T01:08:17.676Z,10.90
2023-03-22T01:10:51.372Z,12.70
2023-03-22T01:13:20.468Z,11.40
2023-03-22T01:15:52.722Z,13.20
2023-03-22T01:18:25.757Z,14.00
2023-03-22T01:20:54.825Z,13.80
2023-03-22T01:23:27.020Z,10.50
2023-03-22T01:25:59.932Z,11.90
2023-03-22T01:28:31.131Z,12.90
2023-03-22T01:31:03.027Z,15.90
2023-03-22T01:33:36.790Z,15.00
2023-03-22T01:36:07.566Z,17.00
2023-03-22T01:38:42.123Z,15.50
2023-03-22T01:41:10.361Z,15.70
2023-03-22T01:44:11.399Z,16.40
2023-03-22T01:46:48.715Z,18.40
2023-03-22T01:49:22.453Z,16.20
2023-03-22T01:51:59.141Z,16.90
2023-03-22T01:54:49.966Z,16.90
2023-03-22T01:57:28.629Z,17.30
2023-03-22T01:59:58.553Z,16.50
2023-03-22T02:02:43.650Z,14.70
2023-03-22T02:05:22.493Z,18.00
2023-03-22T02:07:52.457Z,15.30
2023-03-22T02:10:27.598Z,17.20
2023-03-22T02:14:39.067Z,15.30
2023-03-22T02:18:06.626Z,18.10
2023-03-22T02:20:45.481Z,16.10
2023-03-22T02:23:35.403Z,16.70
2023-03-22T02:26:41.716Z,14.30
2023-03-22T02:29:33.168Z,14.10
2023-03-22T02:32:27.073Z,16.10
2023-03-22T02:35:23.073Z,16.20
2023-03-22T02:38:34.765Z,21.60
2023-03-22T02:41:11.908Z,15.00
2023-03-22T02:44:01.362Z,15.10
2023-03-22T02:46:36.396Z,19.20
2023-03-22T02:49:08.125Z,20.50
2023-03-22T02:51:42.704Z,20.50
2023-03-22T02:54:26.522Z,19.90
2023-03-22T02:57:15.880Z,19.60
2023-03-22T02:59:46.484Z,20.10
2023-03-22T03:02:18.480Z,21.80
2023-03-22T03:04:48.913Z,21.00
2023-03-22T03:07:22.273Z,20.00
2023-03-22T03:09:55.216Z,15.20
2023-03-22T03:14:54.813Z,16.30
2023-03-22T03:17:44.188Z,17.90
2023-03-22T03:20:37.124Z,18.60
2023-03-22T03:23:17.112Z,20.10
2023-03-22T03:26:01.727Z,19.50
2023-03-22T03:28:43.485Z,17.50
2023-03-22T03:31:25.931Z,18.30
2023-03-22T03:34:12.705Z,17.30
2023-03-22T03:36:43.407Z,19.60
2023-03-22T03:39:13.415Z,17.40
2023-03-22T03:41:42.894Z,17.60
2023-03-22T03:44:13.852Z,18.50
2023-03-22T03:46:42.578Z,16.60
2023-03-22T03:49:13.734Z,17.70
2023-03-22T03:51:52.737Z,17.50
2023-03-22T03:54:21.388Z,18.70
2023-03-22T03:56:53.870Z,18.60
2023-03-22T03:59:22.346Z,22.20
2023-03-22T04:01:52.928Z,23.00
2023-03-22T04:04:37.216Z,17.30
2023-03-22T04:07:12.062Z,19.90
2023-03-22T04:09:40.949Z,16.90
2023-03-22T04:12:17.387Z,19.00
2023-03-22T04:14:56.542Z,20.30
2023-03-22T04:17:29.321Z,19.60
2023-03-22T04:19:59.622Z,20.50
2023-03-22T04:22:28.300Z,18.10
2023-03-22T04:25:02.689Z,19.30
2023-03-22T04:27:37.985Z,19.90
2023-03-22T04:30:37.411Z,21.10
2023-03-22T04:42:48.705Z,26.60
2023-03-22T04:45:32.512Z,24.10
2023-03-22T04:48:28.436Z,25.50
2023-03-22T04:51:04.118Z,27.20
2023-03-22T04:53:39.536Z,30.50
2023-03-22T04:56:10.693Z,25.90
2023-03-22T04:58:42.761Z,26.80
2023-03-22T05:01:18.217Z,27.40
2023-03-22T05:03:50.829Z,28.50
2023-03-22T05:06:22.841Z,25.70
2023-03-22T05:09:01.089Z,27.60
2023-03-22T05:11:34.016Z,26.50
2023-03-22T05:14:26.647Z,25.20
2023-03-22T05:16:56.842Z,27.30
2023-03-22T05:19:25.679Z,29.70
2023-03-22T05:21:58.719Z,25.70
2023-03-22T05:24:39.819Z,30.70
2023-03-22T05:27:11.108Z,28.30
2023-03-22T05:29:49.125Z,29.70
2023-03-22T05:32:26.098Z,34.40
2023-03-22T05:34:57.621Z,34.20
2023-03-22T05:37:38.340Z,31.70
2023-03-22T05:40:10.871Z,30.50
2023-03-22T05:42:46.138Z,22.70
2023-03-22T05:45:27.390Z,24.20
2023-03-22T05:48:11.827Z,23.00
2023-03-22T05:50:45.238Z,21.80
2023-03-22T05:53:13.856Z,21.20
2023-03-22T05:56:10.196Z,23.70
2023-03-22T05:58:42.716Z,25.40
2023-03-22T06:01:20.623Z,25.00
2023-03-22T06:03:52.642Z,25.80
2023-03-22T06:06:31.173Z,29.00
2023-03-22T06:09:17.673Z,24.10
2023-03-22T06:11:51.457Z,26.40
2023-03-22T06:14:19.918Z,29.00
2023-03-22T06:17:09.047Z,29.90
2023-03-22T06:19:41.620Z,28.40
2023-03-22T06:22:11.232Z,27.50
2023-03-22T06:24:40.917Z,25.90
2023-03-22T06:27:09.997Z,25.20
2023-03-22T06:29:41.853Z,29.70
2023-03-22T06:32:10.719Z,26.40
2023-03-22T06:34:39.271Z,25.00
2023-03-22T06:37:07.940Z,27.40
2023-03-22T06:39:40.514Z,26.00
2023-03-22T06:42:10.904Z,27.00
2023-03-22T06:44:42.488Z,27.50
2023-03-22T06:47:27.569Z,29.10
2023-03-22T06:50:19.317Z,29.30
2023-03-22T06:53:09.908Z,28.60
2023-03-22T06:55:38.381Z,30.50
2023-03-22T06:58:13.747Z,27.90
2023-03-22T07:00:42.416Z,25.50
2023-03-22T07:03:10.859Z,28.20
2023-03-22T07:05:52.339Z,28.30
2023-03-22T07:08:22.644Z,27.70
2023-03-22T07:10:53.533Z,28.00
2023-03-22T07:13:25.405Z,26.80
2023-03-22T07:15:59.225Z,22.90
2023-03-22T07:18:37.860Z,27.00
2023-03-22T07:21:06.593Z,24.60
2023-03-22T07:23:35.995Z,26.30
2023-03-22T07:26:08.332Z,26.30
2023-03-22T07:28:44.669Z,25.60
2023-03-22T07:31:14.002Z,26.30
2023-03-22T07:33:56.417Z,25.10
2023-03-22T07:36:27.608Z,22.00
2023-03-22T07:38:58.457Z,24.90
2023-03-22T07:41:39.775Z,28.00
2023-03-22T07:44:47.321Z,22.60
2023-03-22T07:47:37.853Z,23.50
2023-03-22T07:50:22.981Z,24.90
2023-03-22T07:52:59.165Z,23.90
2023-03-22T07:55:28.457Z,22.10
2023-03-22T07:57:56.645Z,21.10
2023-03-22T08:00:27.208Z,19.00
2023-03-22T08:03:02.772Z,21.60
2023-03-22T08:05:51.886Z,18.80
2023-03-22T08:08:20.920Z,21.50
2023-03-22T08:10:51.742Z,18.30
2023-03-22T08:13:20.877Z,18.80
2023-03-22T08:15:49.110Z,22.70
2023-03-22T08:20:58.271Z,20.00
2023-03-22T08:23:41.004Z,18.80
2023-03-22T08:26:31.071Z,19.80
2023-03-22T08:29:06.046Z,17.80
2023-03-22T08:31:35.543Z,20.00
2023-03-22T08:34:03.665Z,19.00
2023-03-22T08:36:32.543Z,19.80
2023-03-22T08:39:04.503Z,20.90
2023-03-22T08:41:50.754Z,19.00
2023-03-22T08:44:19.126Z,19.70
2023-03-22T08:46:47.431Z,21.30
2023-03-22T08:49:17.017Z,19.10
2023-03-22T08:51:53.461Z,17.70
2023-03-22T08:54:36.769Z,20.10
2023-03-22T08:57:08.434Z,17.70
2023-03-22T08:59:54.594Z,14.10
2023-03-22T09:02:27.499Z,18.20
2023-03-22T09:04:56.391Z,19.10
2023-03-22T09:07:27.650Z,16.50
2023-03-22T09:10:14.117Z,25.80
2023-03-22T09:12:47.325Z,20.90
2023-03-22T09:15:20.423Z,17.20
2023-03-22T09:17:58.544Z,19.20
2023-03-22T09:20:27.515Z,26.10
2023-03-22T09:22:57.334Z,20.90
2023-03-22T09:25:25.674Z,17.30
2023-03-22T09:27:56.213Z,21.10
2023-03-22T10:01:05.322Z,12.30
2023-03-22T10:04:11.455Z,24.40
2023-03-22T10:06:38.382Z,21.70
2023-03-22T10:09:32.645Z,16.50
2023-03-22T10:12:06.528Z,16.30
2023-03-22T10:14:38.141Z,15.50
2023-03-22T10:17:08.954Z,27.40
2023-03-22T10:19:46.876Z,17.30
2023-03-22T10:22:15.864Z,16.50
2023-03-22T10:24:45.099Z,22.30
2023-03-22T10:27:16.847Z,17.00
2023-03-22T10:30:13.182Z,13.20
2023-03-22T10:32:57.514Z,10.80
2023-03-22T10:35:25.405Z,14.30
2023-03-22T10:37:52.656Z,16.10
2023-03-22T10:40:35.059Z,18.00
2023-03-22T10:43:20.272Z,12.10
2023-03-22T10:45:46.921Z,15.00
2023-03-22T10:48:28.814Z,12.70
2023-03-22T10:50:55.914Z,14.90
2023-03-22T10:53:34.138Z,11.40
2023-03-22T10:56:01.602Z,11.30
2023-03-22T10:58:30.042Z,14.30
2023-03-22T11:01:01.818Z,15.20
2023-03-22T11:03:40.249Z,18.40
2023-03-22T11:06:13.528Z,14.50
2023-03-22T11:08:44.970Z,13.00
2023-03-22T11:11:38.301Z,10.70
2023-03-22T11:14:31.195Z,16.10
2023-03-22T11:17:19.337Z,17.50
2023-03-22T11:19:54.961Z,19.40
2023-03-22T11:22:24.296Z,12.40
2023-03-22T11:24:54.965Z,14.80
2023-03-22T11:27:35.892Z,12.30
2023-03-22T11:30:20.417Z,12.50
2023-03-22T11:32:47.910Z,11.20
2023-03-22T11:35:24.991Z,11.40
2023-03-22T11:37:53.304Z,15.80
2023-03-22T11:40:30.939Z,11.20
2023-03-22T11:43:19.297Z,9.40
2023-03-22T11:45:59.296Z,12.20
2023-03-22T11:48:29.482Z,15.40
2023-03-22T11:51:10.710Z,10.90
2023-03-22T11:53:39.494Z,10.10
2023-03-22T11:56:08.612Z,18.20
2023-03-22T11:59:03.493Z,14.00
2023-03-22T12:01:35.201Z,13.90
2023-03-22T12:04:04.540Z,20.80
2023-03-22T12:06:34.301Z,9.60
2023-03-22T12:09:25.246Z,9.50
2023-03-22T12:11:55.348Z,6.30
2023-03-22T12:14:32.408Z,9.00
2023-03-22T12:17:19.004Z,9.50
2023-03-22T12:20:18.301Z,7.80
2023-03-22T12:22:52.224Z,8.90
2023-03-22T12:25:21.985Z,19.70
2023-03-22T12:28:13.024Z,12.50
2023-03-22T12:30:47.057Z,9.50
2023-03-22T12:33:18.131Z,9.90
2023-03-22T12:35:45.962Z,10.30
2023-03-22T12:38:34.053Z,12.20
2023-03-22T12:41:04.553Z,11.50
2023-03-22T12:44:01.189Z,10.80
2023-03-22T12:46:40.273Z,7.10
2023-03-22T12:49:28.834Z,8.70
2023-03-22T12:52:20.985Z,6.10
2023-03-22T12:54:51.313Z,8.00
2023-03-22T12:57:18.711Z,8.80
2023-03-22T12:59:49.202Z,8.00
2023-03-22T13:02:34.215Z,11.70
2023-03-22T13:05:12.468Z,10.70
2023-03-22T13:07:48.469Z,7.70
2023-03-22T13:10:31.297Z,8.40
2023-03-22T13:13:12.316Z,11.10
2023-03-22T13:15:55.721Z,9.60
2023-03-22T13:18:31.767Z,8.30
2023-03-22T13:21:19.286Z,10.60
2023-03-22T13:23:53.436Z,9.30
2023-03-22T13:26:22.730Z,8.30
2023-03-22T13:29:02.726Z,10.80
2023-03-22T13:31:36.171Z,12.30
2023-03-22T13:42:36.595Z,10.10
2023-03-22T13:45:09.443Z,9.60
2023-03-22T13:47:44.937Z,11.90
2023-03-22T13:50:28.784Z,10.00
2023-03-22T13:53:06.882Z,9.90
2023-03-22T13:55:51.938Z,11.00
2023-03-22T13:58:49.795Z,8.00
2023-03-22T14:01:35.597Z,11.30
2023-03-22T14:04:10.839Z,9.10
2023-03-22T14:07:15.028Z,8.80
2023-03-22T14:09:49.303Z,8.00
2023-03-22T14:15:05.624Z,19.40
2023-03-22T14:17:50.703Z,13.30
2023-03-22T14:20:28.260Z,9.00
